createdAt,value
2022-08-03T00:05:19.125Z,100572.84
2022-08-03T00:25:22.965Z,100573.22
2022-08-03T00:45:31.338Z,100572.69
2022-08-03T01:05:58.778Z,100598.47
2022-08-03T01:26:18.888Z,100597.53
2022-08-03T01:46:25.933Z,100608.25
2022-08-03T02:07:00.578Z,100604.31
2022-08-03T02:26:59.576Z,100597.22
2022-08-03T02:47:07.303Z,100593.56
2022-08-03T03:07:15.776Z,100603.72
2022-08-03T03:27:20.972Z,100614.75
2022-08-03T03:47:32.631Z,100620.97
2022-08-03T04:08:05.765Z,100621.75
2022-08-03T04:28:30.530Z,100626.41
2022-08-03T04:48:34.541Z,100642.31
2022-08-03T05:08:41.203Z,100656.22
2022-08-03T05:28:51.576Z,100684.13
2022-08-03T05:48:54.973Z,100703.28
2022-08-03T06:08:58.412Z,100702.09
2022-08-03T06:29:03.917Z,100722.13
2022-08-03T06:49:07.997Z,100719.19
2022-08-03T07:09:11.834Z,100735.66
2022-08-03T07:29:15.680Z,100739.41
2022-08-03T07:49:19.575Z,100737.12
2022-08-03T08:09:23.700Z,100729.16
2022-08-03T08:29:27.511Z,100727.28
2022-08-03T08:49:33.045Z,100717.53
2022-08-03T09:10:11.646Z,100724.91
2022-08-03T09:29:59.857Z,100702.84
2022-08-03T09:50:08.897Z,100688.53
2022-08-03T10:10:30.838Z,100669.44
2022-08-03T10:30:36.840Z,100647.72
2022-08-03T10:50:42.303Z,100634.13
2022-08-03T11:10:46.235Z,100626.00
2022-08-03T11:30:49.698Z,100596.63
2022-08-03T11:50:53.201Z,100575.47
2022-08-03T12:11:00.115Z,100569.06
2022-08-03T12:31:09.538Z,100555.53
2022-08-03T12:51:13.135Z,100543.28
2022-08-03T13:11:55.546Z,100519.81
2022-08-03T13:31:51.052Z,100513.19
2022-08-03T13:51:54.762Z,100482.13
2022-08-03T14:12:07.975Z,100472.06
2022-08-03T14:32:13.452Z,100453.50
2022-08-03T14:52:17.713Z,100426.97
2022-08-03T15:12:21.648Z,100414.91
2022-08-03T15:32:25.060Z,100417.59
2022-08-03T15:52:29.665Z,100405.00
2022-08-03T16:12:33.842Z,100400.63
2022-08-03T16:32:40.055Z,100394.47
2022-08-03T16:52:47.240Z,100395.22
2022-08-03T17:12:51.101Z,100388.28
2022-08-03T17:32:57.514Z,100397.72
2022-08-03T17:53:15.616Z,100424.59
2022-08-03T18:13:30.809Z,100423.19
2022-08-03T18:34:19.599Z,100441.13
2022-08-03T18:54:59.024Z,100457.72
2022-08-03T19:14:59.238Z,100471.28
2022-08-03T19:35:04.886Z,100485.59
2022-08-03T19:55:18.353Z,100504.53
2022-08-03T20:15:31.182Z,100520.09
2022-08-03T20:35:35.220Z,100520.38
2022-08-03T20:55:47.799Z,100526.19
2022-08-03T21:16:13.888Z,100521.22
2022-08-03T21:36:18.300Z,100528.87
2022-08-03T21:56:22.428Z,100540.56
2022-08-03T22:16:25.778Z,100554.75
2022-08-03T22:36:33.890Z,100560.94
2022-08-03T22:56:38.912Z,100578.06
2022-08-03T23:16:44.245Z,100581.06
2022-08-03T23:36:49.296Z,100595.44
2022-08-03T23:57:01.965Z,100609.47
